sensor_id;sensor_type;location;lat;lon;timestamp;P1;durP1;ratioP1;P2;durP2;ratioP2
12334;SDS011;6233;51.560;9.986;2023-03-12T08:44:22;3.73;;;2.40;;
12334;SDS011;6233;51.560;9.986;2023-03-12T08:47:24;4.83;;;2.93;;
12334;SDS011;6233;51.560;9.986;2023-03-12T08:50:26;3.30;;;2.33;;
12334;SDS011;6233;51.560;9.986;2023-03-12T08:53:29;3.50;;;2.50;;
12334;SDS011;6233;51.560;9.986;2023-03-12T08:56:32;3.93;;;2.80;;
12334;SDS011;6233;51.560;9.986;2023-03-12T08:59:34;3.47;;;2.50;;
12334;SDS011;6233;51.560;9.986;2023-03-12T09:02:36;4.40;;;2.83;;
12334;SDS011;6233;51.560;9.986;2023-03-12T09:05:39;3.43;;;2.60;;
12334;SDS011;6233;51.560;9.986;2023-03-12T09:08:41;3.53;;;2.80;;
12334;SDS011;6233;51.560;9.986;2023-03-12T09:11:44;4.27;;;2.70;;
12334;SDS011;6233;51.560;9.986;2023-03-12T09:14:45;3.47;;;2.33;;
12334;SDS011;6233;51.560;9.986;2023-03-12T09:18:04;4.30;;;2.53;;
12334;SDS011;6233;51.560;9.986;2023-03-12T09:21:05;5.57;;;2.87;;
12334;SDS011;6233;51.560;9.986;2023-03-12T09:24:07;3.33;;;2.47;;
12334;SDS011;6233;51.560;9.986;2023-03-12T09:27:11;4.97;;;3.20;;
12334;SDS011;6233;51.560;9.986;2023-03-12T09:33:43;3.93;;;2.90;;
12334;SDS011;6233;51.560;9.986;2023-03-12T09:36:45;5.40;;;3.13;;
12334;SDS011;6233;51.560;9.986;2023-03-12T09:39:48;3.30;;;2.50;;
12334;SDS011;6233;51.560;9.986;2023-03-12T09:42:54;5.63;;;2.83;;
12334;SDS011;6233;51.560;9.986;2023-03-12T09:45:57;6.63;;;2.80;;
12334;SDS011;6233;51.560;9.986;2023-03-12T09:49:00;4.93;;;2.93;;
12334;SDS011;6233;51.560;9.986;2023-03-12T09:52:15;4.47;;;2.73;;
12334;SDS011;6233;51.560;9.986;2023-03-12T09:55:26;2.77;;;2.33;;
12334;SDS011;6233;51.560;9.986;2023-03-12T09:58:33;5.30;;;3.07;;
12334;SDS011;6233;51.560;9.986;2023-03-12T10:01:45;4.87;;;3.10;;
12334;SDS011;6233;51.560;9.986;2023-03-12T10:04:55;3.97;;;2.57;;
12334;SDS011;6233;51.560;9.986;2023-03-12T10:08:09;4.23;;;2.83;;
12334;SDS011;6233;51.560;9.986;2023-03-12T10:14:51;5.73;;;3.77;;
12334;SDS011;6233;51.560;9.986;2023-03-12T10:31:40;5.63;;;2.90;;
12334;SDS011;6233;51.560;9.986;2023-03-12T10:35:18;10.90;;;9.50;;
12334;SDS011;6233;51.560;9.986;2023-03-12T10:38:28;6.33;;;3.30;;
12334;SDS011;6233;51.560;9.986;2023-03-12T10:41:35;5.87;;;3.60;;
12334;SDS011;6233;51.560;9.986;2023-03-12T10:44:37;6.60;;;5.90;;
12334;SDS011;6233;51.560;9.986;2023-03-12T10:47:40;8.43;;;7.70;;
12334;SDS011;6233;51.560;9.986;2023-03-12T10:50:43;8.20;;;7.40;;
12334;SDS011;6233;51.560;9.986;2023-03-12T10:54:19;6.17;;;4.50;;
12334;SDS011;6233;51.560;9.986;2023-03-12T10:57:23;7.67;;;5.63;;
12334;SDS011;6233;51.560;9.986;2023-03-12T11:00:40;6.00;;;4.03;;
12334;SDS011;6233;51.560;9.986;2023-03-12T11:04:07;6.13;;;4.17;;
12334;SDS011;6233;51.560;9.986;2023-03-12T11:10:16;5.53;;;4.00;;
12334;SDS011;6233;51.560;9.986;2023-03-12T11:13:21;6.87;;;4.33;;
12334;SDS011;6233;51.560;9.986;2023-03-12T11:16:28;6.33;;;5.03;;
12334;SDS011;6233;51.560;9.986;2023-03-12T11:19:32;7.63;;;4.70;;
12334;SDS011;6233;51.560;9.986;2023-03-12T11:22:35;8.10;;;4.87;;
12334;SDS011;6233;51.560;9.986;2023-03-12T11:25:37;7.57;;;4.93;;
12334;SDS011;6233;51.560;9.986;2023-03-12T11:28:43;6.77;;;5.40;;
12334;SDS011;6233;51.560;9.986;2023-03-12T11:31:57;7.57;;;4.97;;
12334;SDS011;6233;51.560;9.986;2023-03-12T11:35:08;10.20;;;6.60;;
12334;SDS011;6233;51.560;9.986;2023-03-12T11:38:16;5.33;;;4.83;;
12334;SDS011;6233;51.560;9.986;2023-03-12T11:51:32;7.13;;;4.77;;
12334;SDS011;6233;51.560;9.986;2023-03-12T11:54:55;5.53;;;4.40;;
12334;SDS011;6233;51.560;9.986;2023-03-12T11:58:07;8.77;;;4.90;;
12334;SDS011;6233;51.560;9.986;2023-03-12T12:05:21;5.77;;;4.80;;
12334;SDS011;6233;51.560;9.986;2023-03-12T12:18:35;7.27;;;4.63;;
12334;SDS011;6233;51.560;9.986;2023-03-12T12:21:44;5.43;;;4.87;;
12334;SDS011;6233;51.560;9.986;2023-03-12T12:31:55;5.70;;;4.57;;
12334;SDS011;6233;51.560;9.986;2023-03-12T12:41:36;5.10;;;4.60;;
12334;SDS011;6233;51.560;9.986;2023-03-12T12:44:51;7.10;;;4.77;;
12334;SDS011;6233;51.560;9.986;2023-03-12T12:48:02;6.03;;;4.40;;
12334;SDS011;6233;51.560;9.986;2023-03-12T12:51:11;5.03;;;4.40;;
12334;SDS011;6233;51.560;9.986;2023-03-12T12:54:21;6.07;;;5.13;;
12334;SDS011;6233;51.560;9.986;2023-03-12T13:00:35;5.30;;;4.53;;
12334;SDS011;6233;51.560;9.986;2023-03-12T13:03:43;7.17;;;5.07;;
12334;SDS011;6233;51.560;9.986;2023-03-12T13:13:33;6.80;;;5.30;;
12334;SDS011;6233;51.560;9.986;2023-03-12T13:16:41;6.40;;;5.43;;
12334;SDS011;6233;51.560;9.986;2023-03-12T13:19:44;7.97;;;5.77;;
12334;SDS011;6233;51.560;9.986;2023-03-12T13:23:04;5.20;;;4.80;;
12334;SDS011;6233;51.560;9.986;2023-03-12T13:29:49;6.93;;;5.20;;
12334;SDS011;6233;51.560;9.986;2023-03-12T13:36:03;5.77;;;5.17;;
12334;SDS011;6233;51.560;9.986;2023-03-12T13:42:36;5.60;;;5.07;;
12334;SDS011;6233;51.560;9.986;2023-03-12T13:48:48;5.57;;;5.07;;
12334;SDS011;6233;51.560;9.986;2023-03-12T13:51:58;6.40;;;5.20;;
12334;SDS011;6233;51.560;9.986;2023-03-12T13:55:22;5.40;;;4.87;;
12334;SDS011;6233;51.560;9.986;2023-03-12T13:58:26;6.93;;;6.23;;
12334;SDS011;6233;51.560;9.986;2023-03-12T14:01:30;8.60;;;6.83;;
12334;SDS011;6233;51.560;9.986;2023-03-12T14:04:37;7.57;;;5.83;;
12334;SDS011;6233;51.560;9.986;2023-03-12T14:07:53;6.63;;;5.93;;
12334;SDS011;6233;51.560;9.986;2023-03-12T14:11:23;7.17;;;6.20;;
12334;SDS011;6233;51.560;9.986;2023-03-12T14:17:56;8.77;;;6.53;;
12334;SDS011;6233;51.560;9.986;2023-03-12T14:21:02;9.30;;;6.70;;
12334;SDS011;6233;51.560;9.986;2023-03-12T14:24:19;9.53;;;6.70;;
12334;SDS011;6233;51.560;9.986;2023-03-12T14:27:44;7.33;;;6.63;;
12334;SDS011;6233;51.560;9.986;2023-03-12T14:34:05;8.73;;;6.80;;
12334;SDS011;6233;51.560;9.986;2023-03-12T14:37:15;9.17;;;6.70;;
12334;SDS011;6233;51.560;9.986;2023-03-12T14:40:24;8.33;;;6.60;;
12334;SDS011;6233;51.560;9.986;2023-03-12T14:43:38;7.67;;;6.87;;
12334;SDS011;6233;51.560;9.986;2023-03-12T14:46:47;7.67;;;6.63;;
12334;SDS011;6233;51.560;9.986;2023-03-12T14:50:19;10.17;;;6.43;;
12334;SDS011;6233;51.560;9.986;2023-03-12T14:53:33;8.40;;;6.87;;
12334;SDS011;6233;51.560;9.986;2023-03-12T14:56:39;7.17;;;6.43;;
12334;SDS011;6233;51.560;9.986;2023-03-12T14:59:50;9.07;;;6.97;;
12334;SDS011;6233;51.560;9.986;2023-03-12T15:03:16;8.27;;;7.20;;
12334;SDS011;6233;51.560;9.986;2023-03-12T15:06:34;7.90;;;6.93;;
12334;SDS011;6233;51.560;9.986;2023-03-12T15:09:46;7.23;;;6.53;;
12334;SDS011;6233;51.560;9.986;2023-03-12T15:12:56;7.53;;;6.80;;
12334;SDS011;6233;51.560;9.986;2023-03-12T15:15:59;8.60;;;7.00;;
12334;SDS011;6233;51.560;9.986;2023-03-12T15:19:05;8.40;;;7.50;;
12334;SDS011;6233;51.560;9.986;2023-03-12T15:22:20;7.67;;;6.90;;
12334;SDS011;6233;51.560;9.986;2023-03-12T15:25:31;7.47;;;6.77;;
12334;SDS011;6233;51.560;9.986;2023-03-12T15:28:38;8.27;;;7.37;;
12334;SDS011;6233;51.560;9.986;2023-03-12T15:31:41;8.23;;;6.97;;
12334;SDS011;6233;51.560;9.986;2023-03-12T15:34:45;8.77;;;7.87;;
12334;SDS011;6233;51.560;9.986;2023-03-12T15:41:18;8.37;;;7.43;;
12334;SDS011;6233;51.560;9.986;2023-03-12T15:44:23;8.33;;;7.07;;
12334;SDS011;6233;51.560;9.986;2023-03-12T15:47:32;9.17;;;7.63;;
12334;SDS011;6233;51.560;9.986;2023-03-12T15:54:33;7.90;;;6.93;;
12334;SDS011;6233;51.560;9.986;2023-03-12T16:00:46;7.07;;;6.37;;
12334;SDS011;6233;51.560;9.986;2023-03-12T16:03:49;8.03;;;6.47;;
12334;SDS011;6233;51.560;9.986;2023-03-12T16:06:54;7.80;;;6.93;;
12334;SDS011;6233;51.560;9.986;2023-03-12T16:09:56;7.60;;;6.50;;
12334;SDS011;6233;51.560;9.986;2023-03-12T16:13:00;8.30;;;7.33;;
12334;SDS011;6233;51.560;9.986;2023-03-12T16:19:27;6.60;;;5.97;;
12334;SDS011;6233;51.560;9.986;2023-03-12T16:22:33;6.93;;;6.23;;
12334;SDS011;6233;51.560;9.986;2023-03-12T16:25:34;6.73;;;5.70;;
12334;SDS011;6233;51.560;9.986;2023-03-12T16:28:36;6.10;;;5.50;;
12334;SDS011;6233;51.560;9.986;2023-03-12T16:31:38;6.57;;;5.73;;
12334;SDS011;6233;51.560;9.986;2023-03-12T16:34:40;7.23;;;6.53;;
12334;SDS011;6233;51.560;9.986;2023-03-12T16:37:43;6.17;;;5.57;;
12334;SDS011;6233;51.560;9.986;2023-03-12T16:40:46;8.23;;;6.30;;
12334;SDS011;6233;51.560;9.986;2023-03-12T16:43:49;7.57;;;6.20;;
12334;SDS011;6233;51.560;9.986;2023-03-12T16:46:53;7.73;;;6.37;;
12334;SDS011;6233;51.560;9.986;2023-03-12T16:49:55;7.23;;;6.17;;
12334;SDS011;6233;51.560;9.986;2023-03-12T16:52:58;7.50;;;6.20;;
12334;SDS011;6233;51.560;9.986;2023-03-12T16:56:02;6.27;;;5.63;;
12334;SDS011;6233;51.560;9.986;2023-03-12T16:59:09;9.03;;;6.40;;
12334;SDS011;6233;51.560;9.986;2023-03-12T17:02:33;7.57;;;5.97;;
12334;SDS011;6233;51.560;9.986;2023-03-12T17:05:53;7.27;;;5.63;;
12334;SDS011;6233;51.560;9.986;2023-03-12T17:08:54;8.50;;;6.30;;
12334;SDS011;6233;51.560;9.986;2023-03-12T17:11:56;7.37;;;6.03;;
12334;SDS011;6233;51.560;9.986;2023-03-12T17:14:59;6.87;;;6.03;;
12334;SDS011;6233;51.560;9.986;2023-03-12T17:18:01;8.00;;;6.87;;
12334;SDS011;6233;51.560;9.986;2023-03-12T17:21:04;9.50;;;7.00;;
12334;SDS011;6233;51.560;9.986;2023-03-12T17:24:20;8.77;;;6.87;;
12334;SDS011;6233;51.560;9.986;2023-03-12T17:27:28;7.23;;;6.50;;
12334;SDS011;6233;51.560;9.986;2023-03-12T17:30:30;8.40;;;6.90;;
12334;SDS011;6233;51.560;9.986;2023-03-12T17:33:33;10.77;;;8.00;;
12334;SDS011;6233;51.560;9.986;2023-03-12T17:36:35;8.30;;;7.10;;
12334;SDS011;6233;51.560;9.986;2023-03-12T17:39:37;9.20;;;7.90;;
12334;SDS011;6233;51.560;9.986;2023-03-12T17:42:39;13.20;;;8.00;;
12334;SDS011;6233;51.560;9.986;2023-03-12T17:45:41;10.57;;;7.90;;
12334;SDS011;6233;51.560;9.986;2023-03-12T17:51:54;12.73;;;8.37;;
12334;SDS011;6233;51.560;9.986;2023-03-12T17:54:56;11.60;;;8.67;;
12334;SDS011;6233;51.560;9.986;2023-03-12T17:57:58;14.63;;;10.10;;
12334;SDS011;6233;51.560;9.986;2023-03-12T18:00:59;12.53;;;9.23;;
12334;SDS011;6233;51.560;9.986;2023-03-12T18:04:01;13.83;;;9.70;;
12334;SDS011;6233;51.560;9.986;2023-03-12T18:07:03;13.93;;;9.30;;
12334;SDS011;6233;51.560;9.986;2023-03-12T18:10:06;16.00;;;9.87;;
12334;SDS011;6233;51.560;9.986;2023-03-12T18:13:11;16.37;;;9.90;;
12334;SDS011;6233;51.560;9.986;2023-03-12T18:16:12;11.43;;;10.07;;
12334;SDS011;6233;51.560;9.986;2023-03-12T18:19:15;13.70;;;10.17;;
12334;SDS011;6233;51.560;9.986;2023-03-12T18:22:17;13.93;;;10.53;;
12334;SDS011;6233;51.560;9.986;2023-03-12T18:25:21;17.03;;;11.47;;
12334;SDS011;6233;51.560;9.986;2023-03-12T18:28:52;15.77;;;10.97;;
12334;SDS011;6233;51.560;9.986;2023-03-12T18:31:58;18.87;;;12.00;;
12334;SDS011;6233;51.560;9.986;2023-03-12T18:35:10;15.03;;;11.77;;
12334;SDS011;6233;51.560;9.986;2023-03-12T18:38:17;15.40;;;12.00;;
12334;SDS011;6233;51.560;9.986;2023-03-12T18:41:21;19.93;;;12.60;;
12334;SDS011;6233;51.560;9.986;2023-03-12T18:44:31;17.57;;;12.33;;
12334;SDS011;6233;51.560;9.986;2023-03-12T18:47:33;20.60;;;12.63;;
12334;SDS011;6233;51.560;9.986;2023-03-12T18:50:35;15.83;;;12.37;;
12334;SDS011;6233;51.560;9.986;2023-03-12T18:53:37;17.07;;;12.20;;
12334;SDS011;6233;51.560;9.986;2023-03-12T18:56:39;15.13;;;12.03;;
12334;SDS011;6233;51.560;9.986;2023-03-12T18:59:41;17.53;;;11.93;;
12334;SDS011;6233;51.560;9.986;2023-03-12T19:02:46;17.73;;;11.83;;
12334;SDS011;6233;51.560;9.986;2023-03-12T19:05:58;18.10;;;11.77;;
12334;SDS011;6233;51.560;9.986;2023-03-12T19:09:02;17.63;;;11.70;;
12334;SDS011;6233;51.560;9.986;2023-03-12T19:12:05;19.30;;;12.03;;
12334;SDS011;6233;51.560;9.986;2023-03-12T19:15:07;16.70;;;11.17;;
12334;SDS011;6233;51.560;9.986;2023-03-12T19:18:09;16.30;;;12.27;;
12334;SDS011;6233;51.560;9.986;2023-03-12T19:24:49;16.20;;;11.87;;
12334;SDS011;6233;51.560;9.986;2023-03-12T19:27:51;19.50;;;11.77;;
12334;SDS011;6233;51.560;9.986;2023-03-12T19:31:00;17.03;;;10.63;;
12334;SDS011;6233;51.560;9.986;2023-03-12T19:34:03;17.37;;;11.63;;
12334;SDS011;6233;51.560;9.986;2023-03-12T19:37:05;15.97;;;11.67;;
12334;SDS011;6233;51.560;9.986;2023-03-12T19:40:07;17.33;;;11.70;;
12334;SDS011;6233;51.560;9.986;2023-03-12T19:43:11;17.30;;;10.87;;
12334;SDS011;6233;51.560;9.986;2023-03-12T19:46:12;18.27;;;10.27;;
12334;SDS011;6233;51.560;9.986;2023-03-12T19:49:14;17.47;;;10.03;;
12334;SDS011;6233;51.560;9.986;2023-03-12T19:52:16;15.80;;;10.27;;
12334;SDS011;6233;51.560;9.986;2023-03-12T19:55:19;15.47;;;9.77;;
12334;SDS011;6233;51.560;9.986;2023-03-12T19:58:21;17.93;;;9.80;;
12334;SDS011;6233;51.560;9.986;2023-03-12T20:01:23;17.50;;;9.53;;
12334;SDS011;6233;51.560;9.986;2023-03-12T20:04:25;14.97;;;9.47;;
12334;SDS011;6233;51.560;9.986;2023-03-12T20:07:27;16.27;;;8.77;;
12334;SDS011;6233;51.560;9.986;2023-03-12T20:10:29;15.80;;;8.33;;
12334;SDS011;6233;51.560;9.986;2023-03-12T20:13:32;16.43;;;8.87;;
12334;SDS011;6233;51.560;9.986;2023-03-12T20:16:34;13.40;;;7.80;;
12334;SDS011;6233;51.560;9.986;2023-03-12T20:24:13;15.57;;;7.70;;
12334;SDS011;6233;51.560;9.986;2023-03-12T20:27:15;18.03;;;8.60;;
12334;SDS011;6233;51.560;9.986;2023-03-12T20:30:17;15.27;;;6.97;;
12334;SDS011;6233;51.560;9.986;2023-03-12T20:33:18;16.63;;;8.30;;
12334;SDS011;6233;51.560;9.986;2023-03-12T20:36:20;17.97;;;7.50;;
12334;SDS011;6233;51.560;9.986;2023-03-12T20:39:22;17.27;;;6.67;;
12334;SDS011;6233;51.560;9.986;2023-03-12T20:42:24;15.63;;;7.03;;
12334;SDS011;6233;51.560;9.986;2023-03-12T20:45:26;16.57;;;6.53;;
12334;SDS011;6233;51.560;9.986;2023-03-12T20:48:28;13.63;;;6.13;;
12334;SDS011;6233;51.560;9.986;2023-03-12T20:51:30;18.47;;;7.77;;
12334;SDS011;6233;51.560;9.986;2023-03-12T20:54:55;14.70;;;5.70;;
12334;SDS011;6233;51.560;9.986;2023-03-12T20:57:59;13.87;;;6.30;;
12334;SDS011;6233;51.560;9.986;2023-03-12T21:01:12;11.93;;;5.10;;
12334;SDS011;6233;51.560;9.986;2023-03-12T21:05:21;13.33;;;6.07;;
12334;SDS011;6233;51.560;9.986;2023-03-12T21:08:46;15.60;;;5.83;;
12334;SDS011;6233;51.560;9.986;2023-03-12T21:16:16;10.70;;;5.20;;
12334;SDS011;6233;51.560;9.986;2023-03-12T21:19:17;16.27;;;6.23;;
12334;SDS011;6233;51.560;9.986;2023-03-12T21:22:19;13.67;;;5.70;;
12334;SDS011;6233;51.560;9.986;2023-03-12T21:25:21;10.50;;;4.87;;
12334;SDS011;6233;51.560;9.986;2023-03-12T21:28:25;17.93;;;5.93;;
12334;SDS011;6233;51.560;9.986;2023-03-12T21:31:36;12.07;;;5.23;;
12334;SDS011;6233;51.560;9.986;2023-03-12T21:34:40;17.33;;;5.10;;
12334;SDS011;6233;51.560;9.986;2023-03-12T21:37:42;14.90;;;5.43;;
12334;SDS011;6233;51.560;9.986;2023-03-12T21:40:43;10.53;;;5.00;;
12334;SDS011;6233;51.560;9.986;2023-03-12T21:43:45;13.40;;;5.80;;
12334;SDS011;6233;51.560;9.986;2023-03-12T21:46:48;14.57;;;5.90;;
12334;SDS011;6233;51.560;9.986;2023-03-12T21:49:49;12.10;;;5.10;;
12334;SDS011;6233;51.560;9.986;2023-03-12T21:56:23;12.77;;;5.37;;
12334;SDS011;6233;51.560;9.986;2023-03-12T22:03:35;12.53;;;4.73;;
12334;SDS011;6233;51.560;9.986;2023-03-12T22:06:46;14.17;;;4.83;;
12334;SDS011;6233;51.560;9.986;2023-03-12T22:09:59;12.37;;;4.53;;
12334;SDS011;6233;51.560;9.986;2023-03-12T22:13:03;12.97;;;5.27;;
12334;SDS011;6233;51.560;9.986;2023-03-12T22:16:08;15.67;;;5.00;;
12334;SDS011;6233;51.560;9.986;2023-03-12T22:19:12;12.17;;;4.90;;
12334;SDS011;6233;51.560;9.986;2023-03-12T22:22:14;14.80;;;5.53;;
12334;SDS011;6233;51.560;9.986;2023-03-12T22:25:16;14.00;;;4.97;;
12334;SDS011;6233;51.560;9.986;2023-03-12T22:28:18;13.83;;;5.37;;
12334;SDS011;6233;51.560;9.986;2023-03-12T22:31:23;12.73;;;5.13;;
12334;SDS011;6233;51.560;9.986;2023-03-12T22:34:32;12.93;;;4.80;;
12334;SDS011;6233;51.560;9.986;2023-03-12T22:37:37;15.40;;;5.20;;
12334;SDS011;6233;51.560;9.986;2023-03-12T22:40:39;15.17;;;5.73;;
12334;SDS011;6233;51.560;9.986;2023-03-12T22:43:42;9.60;;;4.43;;
12334;SDS011;6233;51.560;9.986;2023-03-12T22:46:44;11.23;;;4.77;;
12334;SDS011;6233;51.560;9.986;2023-03-12T22:49:45;12.57;;;4.93;;
12334;SDS011;6233;51.560;9.986;2023-03-12T22:52:49;17.57;;;4.83;;
12334;SDS011;6233;51.560;9.986;2023-03-12T22:55:57;13.47;;;4.87;;
12334;SDS011;6233;51.560;9.986;2023-03-12T22:59:00;11.40;;;4.60;;
12334;SDS011;6233;51.560;9.986;2023-03-12T23:02:02;13.67;;;4.97;;
12334;SDS011;6233;51.560;9.986;2023-03-12T23:05:04;12.93;;;5.40;;
12334;SDS011;6233;51.560;9.986;2023-03-12T23:08:06;11.00;;;4.87;;
12334;SDS011;6233;51.560;9.986;2023-03-12T23:11:08;11.40;;;4.97;;
12334;SDS011;6233;51.560;9.986;2023-03-12T23:14:11;11.30;;;4.30;;
12334;SDS011;6233;51.560;9.986;2023-03-12T23:17:12;15.63;;;5.80;;
12334;SDS011;6233;51.560;9.986;2023-03-12T23:20:14;11.83;;;4.43;;
12334;SDS011;6233;51.560;9.986;2023-03-12T23:23:16;16.03;;;5.37;;
12334;SDS011;6233;51.560;9.986;2023-03-12T23:26:19;15.63;;;4.23;;
12334;SDS011;6233;51.560;9.986;2023-03-12T23:29:23;11.70;;;4.83;;
12334;SDS011;6233;51.560;9.986;2023-03-12T23:36:27;14.70;;;4.43;;
12334;SDS011;6233;51.560;9.986;2023-03-12T23:39:29;11.90;;;4.60;;
12334;SDS011;6233;51.560;9.986;2023-03-12T23:42:35;12.03;;;4.80;;
12334;SDS011;6233;51.560;9.986;2023-03-12T23:45:37;15.70;;;4.57;;
12334;SDS011;6233;51.560;9.986;2023-03-12T23:48:39;13.90;;;4.53;;
12334;SDS011;6233;51.560;9.986;2023-03-12T23:51:41;13.47;;;4.17;;
12334;SDS011;6233;51.560;9.986;2023-03-12T23:54:43;19.00;;;5.00;;
12334;SDS011;6233;51.560;9.986;2023-03-12T23:57:44;18.47;;;5.00;;
